Time;durP1;ratioP1;P1;durP2;ratioP2;P2;SDS_P1;SDS_P2;PMS_P1;PMS_P2;Temp;Humidity;BMP_temperature;BMP_pressure;BME280_temperature;BME280_humidity;BME280_pressure;Samples;Min_cycle;Max_cycle;Signal;HPM_P1;HPM_P2
2022/01/25 00:26:23;;;;;;;;;;;;;;;21.25;24.12;97031.44;10458012;28;1906;-56
2022/01/25 00:31:25;;;;;;;;;;;;;;;21.23;23.67;97034.34;10455805;28;1945;-57
2022/01/25 00:36:26;;;;;;;;;;;;;;;21.24;23.97;97035.16;10460118;28;1850;-57
2022/01/25 00:41:27;;;;;;;;;;;;;;;21.23;24.13;97025.63;10454469;28;1767;-56
2022/01/25 00:46:27;;;;;;;;;;;;;;;21.24;23.84;97022.75;10458387;28;1969;-52
2022/01/25 00:56:33;;;;;;;;;;;;;;;21.24;23.85;97025.41;10458786;28;1788;-55
2022/01/25 01:01:34;;;;;;;;;;;;;;;21.24;24.11;97017.50;10459073;28;1678;-56
2022/01/25 01:06:35;;;;;;;;;;;;;;;21.23;24.00;97018.53;10452098;28;1971;-55
2022/01/25 01:11:41;;;;;;;;;;;;;;;21.22;24.12;97016.94;10446253;28;1838;-56
2022/01/25 01:43:28;;;;;;;;;;;;;;;21.25;23.84;97036.72;10451563;28;1814;-56
2022/01/25 01:48:31;;;;;;;;;;;;;;;21.23;23.43;97034.34;10470836;28;2082;-53
2022/01/25 01:53:31;;;;;;;;;;;;;;;21.22;23.67;97040.69;10461917;28;1929;-55
2022/01/25 01:58:34;;;;;;;;;;;;;;;21.25;24.02;97036.72;10457075;28;1927;-56
2022/01/25 02:03:34;;;;;;;;;;;;;;;21.21;23.91;97033.78;10465103;28;1951;-53
2022/01/25 02:08:34;;;;;;;;;;;;;;;21.22;24.10;97043.31;10460274;28;1981;-56
2022/01/25 02:13:37;;;;;;;;;;;;;;;21.24;23.88;97037.78;10463109;28;1946;-55
2022/01/25 02:23:56;;;;;;;;;;;;;;;21.22;23.75;97021.41;10461753;28;1938;-56
2022/01/25 02:28:57;;;;;;;;;;;;;;;21.22;23.88;97016.13;10465420;28;2255;-53
2022/01/25 02:33:57;;;;;;;;;;;;;;;21.23;23.62;97012.44;10456187;28;1990;-57
2022/01/25 02:39:00;;;;;;;;;;;;;;;21.24;24.17;97009.59;10462948;28;1936;-55
2022/01/25 02:44:00;;;;;;;;;;;;;;;21.23;23.86;97007.97;10456814;28;1911;-58
2022/01/25 02:49:02;;;;;;;;;;;;;;;21.23;23.96;97007.16;10455269;28;1868;-57
2022/01/25 02:54:03;;;;;;;;;;;;;;;21.23;23.92;96999.25;10458658;28;2085;-58
2022/01/25 02:59:05;;;;;;;;;;;;;;;21.24;23.82;96996.41;10452324;28;1961;-56
2022/01/25 03:04:05;;;;;;;;;;;;;;;21.23;23.82;97001.91;10458832;28;2004;-55
2022/01/25 03:09:05;;;;;;;;;;;;;;;21.22;23.53;97006.41;10464067;28;1876;-56
2022/01/25 03:14:10;;;;;;;;;;;;;;;21.25;23.60;97005.09;10468353;28;1982;-53
2022/01/25 03:24:47;;;;;;;;;;;;;;;21.22;23.92;97001.13;10439145;28;2026;-55
2022/01/25 03:29:48;;;;;;;;;;;;;;;21.23;23.42;97010.63;10457912;28;1880;-57
2022/01/25 03:34:48;;;;;;;;;;;;;;;21.22;23.85;97006.41;10453970;28;2041;-55
2022/01/25 03:39:48;;;;;;;;;;;;;;;21.19;23.77;97000.81;10450610;28;1939;-57
2022/01/25 03:44:49;;;;;;;;;;;;;;;21.22;23.95;97006.41;10458006;28;1965;-56
2022/01/25 03:49:51;;;;;;;;;;;;;;;21.18;23.45;96996.59;10462810;28;2009;-57
2022/01/25 03:54:51;;;;;;;;;;;;;;;21.20;23.91;96991.84;10454831;28;2197;-57
2022/01/25 03:59:52;;;;;;;;;;;;;;;21.19;23.93;97003.44;10457696;28;1977;-56
2022/01/25 04:04:53;;;;;;;;;;;;;;;21.19;23.38;96996.31;10472542;28;2021;-57
2022/01/25 04:09:53;;;;;;;;;;;;;;;21.19;23.80;96993.69;10469107;28;1891;-56
2022/01/25 04:14:54;;;;;;;;;;;;;;;21.21;23.55;96993.44;10464376;28;1955;-56
2022/01/25 04:20:16;;;;;;;;;;;;;;;21.20;23.62;96976.03;10464650;28;1930;-57
2022/01/25 04:25:16;;;;;;;;;;;;;;;21.17;23.92;96976.50;10463271;28;2097;-55
2022/01/25 04:30:16;;;;;;;;;;;;;;;21.18;23.54;96976.28;10462131;28;2079;-56
2022/01/25 04:51:31;;;;;;;;;;;;;;;21.16;23.50;96961.75;10450954;28;1935;-55
2022/01/25 05:01:36;;;;;;;;;;;;;;;21.13;23.47;96954.31;10467708;28;1917;-55
2022/01/25 05:06:38;;;;;;;;;;;;;;;21.15;23.26;96952.25;10458235;28;2009;-51
2022/01/25 05:11:42;;;;;;;;;;;;;;;21.13;23.47;96955.13;10466993;28;1883;-54
2022/01/25 05:22:07;;;;;;;;;;;;;;;21.13;23.94;96959.59;10467957;28;1848;-55
2022/01/25 05:27:08;;;;;;;;;;;;;;;21.12;23.34;96958.03;10459498;28;2013;-56
2022/01/25 05:32:08;;;;;;;;;;;;;;;21.13;23.29;96960.41;10442905;28;1939;-53
2022/01/25 05:37:09;;;;;;;;;;;;;;;21.12;23.47;96952.75;10466047;28;2069;-56
2022/01/25 05:47:30;;;;;;;;;;;;;;;21.11;23.60;96967.75;10462322;28;1924;-55
2022/01/25 05:52:31;;;;;;;;;;;;;;;21.11;23.51;96969.59;10461005;28;2148;-55
2022/01/25 05:57:31;;;;;;;;;;;;;;;21.06;23.26;96973.78;10461322;28;2110;-54
2022/01/25 06:02:33;;;;;;;;;;;;;;;21.02;23.34;96964.78;10461920;28;1892;-57
2022/01/25 06:07:33;;;;;;;;;;;;;;;21.08;23.05;96962.19;10452592;28;2053;-57
2022/01/25 06:12:33;;;;;;;;;;;;;;;21.17;23.31;96958.06;10451222;28;1943;-53
2022/01/25 06:17:34;;;;;;;;;;;;;;;21.16;23.85;96946.75;10462366;28;1983;-56
2022/01/25 06:22:35;;;;;;;;;;;;;;;21.15;23.74;96952.25;10475836;28;1961;-56
2022/01/25 06:27:35;;;;;;;;;;;;;;;21.14;23.80;96940.91;10456055;28;1918;-59
2022/01/25 06:32:36;;;;;;;;;;;;;;;21.05;23.52;96945.84;10465255;28;1986;-56
2022/01/25 06:37:36;;;;;;;;;;;;;;;21.01;23.74;96949.19;10452168;28;2030;-55
2022/01/25 06:42:36;;;;;;;;;;;;;;;21.03;23.84;96955.03;10454464;28;1923;-54
2022/01/25 06:47:37;;;;;;;;;;;;;;;21.03;23.53;96958.47;10464609;28;1967;-54
2022/01/25 06:52:40;;;;;;;;;;;;;;;21.06;23.54;96970.38;10458848;28;1998;-54
2022/01/25 06:57:40;;;;;;;;;;;;;;;21.02;23.57;96971.88;10458267;28;2008;-54
2022/01/25 07:02:41;;;;;;;;;;;;;;;20.99;23.37;96980.25;10462773;28;2111;-55
2022/01/25 07:07:41;;;;;;;;;;;;;;;20.99;23.63;96983.69;10462903;28;2153;-53
2022/01/25 07:12:42;;;;;;;;;;;;;;;20.97;23.70;96977.88;10452545;28;1969;-54
2022/01/25 07:17:42;;;;;;;;;;;;;;;20.97;23.63;96993.69;10461903;28;1931;-56
2022/01/25 07:22:43;;;;;;;;;;;;;;;20.97;23.37;96992.88;10463160;28;1844;-55
2022/01/25 07:27:43;;;;;;;;;;;;;;;20.97;23.45;96988.41;10460015;28;1955;-55
2022/01/25 07:32:44;;;;;;;;;;;;;;;20.95;23.64;96981.78;10463618;28;1958;-55
2022/01/25 07:37:44;;;;;;;;;;;;;;;20.93;23.37;96986.53;10471641;28;1950;-55
2022/01/25 07:42:46;;;;;;;;;;;;;;;20.93;23.65;96997.88;10462468;28;2053;-56
2022/01/25 07:47:46;;;;;;;;;;;;;;;20.92;23.49;96985.72;10468175;28;1973;-56
2022/01/25 07:52:47;;;;;;;;;;;;;;;20.93;23.59;96989.16;10460098;28;2058;-52
2022/01/25 07:57:47;;;;;;;;;;;;;;;20.93;23.52;96992.59;10470181;28;1995;-52
2022/01/25 08:02:48;;;;;;;;;;;;;;;20.91;23.31;96999.94;10466890;28;2045;-54
2022/01/25 08:07:48;;;;;;;;;;;;;;;20.91;23.58;97005.22;10466392;28;1983;-51
2022/01/25 08:12:48;;;;;;;;;;;;;;;20.91;23.39;97010.50;10464877;28;1864;-53
2022/01/25 08:17:49;;;;;;;;;;;;;;;20.93;23.51;97010.25;10471357;28;2009;-55
2022/01/25 08:22:50;;;;;;;;;;;;;;;20.91;23.37;96999.94;10463479;28;1867;-54
2022/01/25 08:27:51;;;;;;;;;;;;;;;20.93;23.50;97010.25;10465659;28;1932;-56
2022/01/25 08:32:52;;;;;;;;;;;;;;;20.91;23.68;97009.69;10464998;28;1879;-53
2022/01/25 08:37:52;;;;;;;;;;;;;;;20.91;23.47;96999.94;10464083;28;1916;-50
2022/01/25 08:42:53;;;;;;;;;;;;;;;20.91;23.42;97001.78;10463643;28;1973;-54
2022/01/25 08:47:53;;;;;;;;;;;;;;;20.90;23.60;96995.72;10465686;28;2013;-57
2022/01/25 08:52:54;;;;;;;;;;;;;;;20.90;23.36;96989.63;10460856;28;1978;-52
2022/01/25 08:57:56;;;;;;;;;;;;;;;20.90;23.54;96994.91;10464903;28;1955;-53
2022/01/25 09:02:57;;;;;;;;;;;;;;;20.89;23.37;97001.22;10458968;28;2080;-52
2022/01/25 09:07:58;;;;;;;;;;;;;;;20.90;23.54;96998.34;10464552;28;1977;-52
2022/01/25 09:12:58;;;;;;;;;;;;;;;20.91;23.57;97009.69;10461595;28;1931;-56
2022/01/25 09:17:59;;;;;;;;;;;;;;;20.91;23.49;97001.78;10464491;28;2039;-54
2022/01/25 09:22:59;;;;;;;;;;;;;;;20.92;23.23;97003.34;10463508;28;1852;-52
2022/01/25 09:28:00;;;;;;;;;;;;;;;20.91;23.80;96999.94;10463527;28;1973;-53
2022/01/25 09:33:00;;;;;;;;;;;;;;;20.90;23.37;96997.53;10464680;28;2077;-51
2022/01/25 09:38:01;;;;;;;;;;;;;;;20.92;23.47;97006.00;10460379;28;1875;-56
2022/01/25 09:43:01;;;;;;;;;;;;;;;20.94;23.58;97014.44;10460165;28;1876;-55
2022/01/25 09:48:02;;;;;;;;;;;;;;;20.94;23.66;97012.63;10461394;28;1981;-56
2022/01/25 09:53:04;;;;;;;;;;;;;;;20.98;23.54;97012.91;10461376;28;2053;-53
2022/01/25 09:58:04;;;;;;;;;;;;;;;21.00;23.57;97014.28;10457970;28;2272;-55
2022/01/25 10:03:25;;;;;;;;;;;;;;;21.07;23.80;97014.13;10461591;28;2029;-55
2022/01/25 10:08:30;;;;;;;;;;;;;;;21.17;23.84;97002.88;10459522;28;1966;-54
2022/01/25 10:13:31;;;;;;;;;;;;;;;21.24;24.32;96998.22;10458984;28;2078;-53
2022/01/25 10:18:48;;;;;;;;;;;;;;;21.30;24.76;96989.31;10454144;28;2501;-56
2022/01/25 10:24:07;;;;;;;;;;;;;;;21.40;24.68;96992.06;10461046;28;2040;-53
2022/01/25 10:29:08;;;;;;;;;;;;;;;21.44;24.65;96990.53;10455698;28;1971;-53
2022/01/25 10:34:09;;;;;;;;;;;;;;;21.46;24.64;96991.88;10458671;28;1937;-55
2022/01/25 10:39:09;;;;;;;;;;;;;;;21.54;24.88;96980.06;10457766;28;2069;-54
2022/01/25 10:44:10;;;;;;;;;;;;;;;21.61;25.16;96978.84;10455703;28;1879;-54
2022/01/25 10:49:11;;;;;;;;;;;;;;;21.64;25.17;96969.59;10456721;28;2006;-53
2022/01/25 10:54:14;;;;;;;;;;;;;;;21.66;25.50;96949.84;10458173;28;2037;-53
2022/01/25 10:59:16;;;;;;;;;;;;;;;21.69;25.16;96954.63;10451957;28;1989;-57
2022/01/25 11:04:17;;;;;;;;;;;;;;;21.74;25.41;96954.66;10442536;28;2216;-52
2022/01/25 11:09:18;;;;;;;;;;;;;;;21.75;25.42;96950.16;10458489;28;1963;-54
2022/01/25 11:19:37;;;;;;;;;;;;;;;21.80;25.78;96937.78;10452855;28;2060;-56
2022/01/25 11:24:37;;;;;;;;;;;;;;;21.81;25.62;96939.44;10457354;28;1989;-54
2022/01/25 11:29:38;;;;;;;;;;;;;;;21.81;25.85;96928.88;10456522;28;1993;-54
2022/01/25 11:34:39;;;;;;;;;;;;;;;21.82;25.76;96934.97;10439469;28;1943;-56
2022/01/25 11:39:40;;;;;;;;;;;;;;;21.84;26.05;96922.31;10455369;28;1947;-54
2022/01/25 11:44:48;;;;;;;;;;;;;;;21.82;25.74;96919.13;10455668;28;1953;-54
2022/01/25 11:50:02;;;;;;;;;;;;;;;21.85;25.75;96923.88;10451527;28;1930;-55
2022/01/25 11:55:22;;;;;;;;;;;;;;;21.85;25.86;96913.31;10455124;28;1379;-52
2022/01/25 12:00:35;;;;;;;;;;;;;;;21.89;26.16;96911.75;10451400;28;1886;-53
2022/01/25 12:05:37;;;;;;;;;;;;;;;21.93;25.83;96912.06;10456721;28;2021;-55
2022/01/25 12:10:42;;;;;;;;;;;;;;;21.92;25.89;96908.63;10433288;28;1978;-55
2022/01/25 12:15:44;;;;;;;;;;;;;;;21.93;26.10;96898.88;10458132;28;1978;-53
2022/01/25 12:20:47;;;;;;;;;;;;;;;21.94;25.88;96892.53;10454688;28;1927;-55
2022/01/25 12:26:04;;;;;;;;;;;;;;;21.95;25.86;96883.56;10460639;28;1979;-52
2022/01/25 12:31:04;;;;;;;;;;;;;;;21.95;26.01;96873.00;10461300;28;1965;-51
2022/01/25 12:36:05;;;;;;;;;;;;;;;21.99;26.00;96874.88;10462358;28;1947;-54
2022/01/25 12:41:06;;;;;;;;;;;;;;;22.01;25.99;96872.75;10458957;28;1884;-51
2022/01/25 12:46:09;;;;;;;;;;;;;;;22.03;26.05;96880.44;10464504;28;1975;-55
2022/01/25 12:51:10;;;;;;;;;;;;;;;22.05;26.33;96873.84;10456687;28;1926;-55
2022/01/25 12:56:14;;;;;;;;;;;;;;;22.06;26.03;96864.88;10459838;28;2049;-52
2022/01/25 13:01:15;;;;;;;;;;;;;;;22.08;26.20;96865.44;10460108;28;2006;-53
2022/01/25 13:06:16;;;;;;;;;;;;;;;22.09;26.24;96859.06;10460866;28;1977;-54
2022/01/25 13:16:54;;;;;;;;;;;;;;;22.16;26.18;96856.22;10455649;28;1962;-51
2022/01/25 13:21:55;;;;;;;;;;;;;;;22.25;26.18;96852.03;10459494;28;1927;-52
2022/01/25 13:27:02;;;;;;;;;;;;;;;22.62;25.94;96842.16;10459848;28;1982;-55
2022/01/25 13:32:09;;;;;;;;;;;;;;;23.06;24.60;96842.53;10457376;28;1973;-55
2022/01/25 13:37:19;;;;;;;;;;;;;;;22.87;24.59;96839.59;10453164;28;1931;-55
2022/01/25 13:42:27;;;;;;;;;;;;;;;22.67;25.17;96839.53;10456808;28;1919;-53
2022/01/25 13:47:27;;;;;;;;;;;;;;;22.51;25.32;96843.16;10458911;28;2079;-52
2022/01/25 13:52:31;;;;;;;;;;;;;;;22.38;25.31;96846.28;10452099;28;2076;-55
2022/01/25 13:57:32;;;;;;;;;;;;;;;22.33;25.12;96839.13;10472349;28;1982;-55
2022/01/25 14:02:32;;;;;;;;;;;;;;;22.29;25.46;96848.63;10454530;28;2060;-54
2022/01/25 14:07:39;;;;;;;;;;;;;;;22.27;25.20;96848.09;10455957;28;2364;-55
2022/01/25 14:28:24;;;;;;;;;;;;;;;22.22;25.38;96853.34;10465973;28;2003;-53
2022/01/25 14:33:26;;;;;;;;;;;;;;;22.17;25.40;96861.25;10468366;28;1914;-55
2022/01/25 14:38:26;;;;;;;;;;;;;;;22.13;25.34;96859.38;10461591;28;2049;-52
2022/01/25 14:43:29;;;;;;;;;;;;;;;22.12;25.57;96852.50;10462856;28;1930;-56
2022/01/25 14:48:34;;;;;;;;;;;;;;;22.10;25.61;96851.94;10470922;28;1977;-53
2022/01/25 14:53:35;;;;;;;;;;;;;;;22.06;25.56;96849.03;10467667;28;2045;-55
2022/01/25 15:03:57;;;;;;;;;;;;;;;22.04;26.04;96861.72;10458158;28;1986;-54
2022/01/25 15:08:58;;;;;;;;;;;;;;;22.06;25.71;96867.53;10461675;28;1958;-57
2022/01/25 15:14:07;;;;;;;;;;;;;;;22.04;25.87;96867.00;10467512;28;1908;-56
2022/01/25 15:19:07;;;;;;;;;;;;;;;22.00;25.88;96868.53;10468462;28;1880;-56
2022/01/25 15:24:08;;;;;;;;;;;;;;;22.02;25.84;96869.09;10466529;28;1930;-54
2022/01/25 15:29:09;;;;;;;;;;;;;;;21.96;25.39;96872.75;10455268;28;2045;-54
2022/01/25 15:34:09;;;;;;;;;;;;;;;21.97;25.82;96879.59;10459785;28;1945;-56
2022/01/25 15:39:10;;;;;;;;;;;;;;;21.94;25.38;96880.13;10453838;28;1983;-55
2022/01/25 15:44:11;;;;;;;;;;;;;;;21.93;25.57;96883.03;10457526;28;2014;-53
2022/01/25 15:49:11;;;;;;;;;;;;;;;21.91;25.47;96888.53;10454295;28;2016;-55
2022/01/25 15:54:12;;;;;;;;;;;;;;;21.91;25.53;96885.91;10449510;28;2311;-56
2022/01/25 15:59:12;;;;;;;;;;;;;;;21.88;25.62;96883.00;10465181;28;2120;-56
2022/01/25 16:04:13;;;;;;;;;;;;;;;21.86;25.38;96881.38;10462738;28;1927;-55
2022/01/25 16:09:13;;;;;;;;;;;;;;;21.80;24.71;96879.72;10462024;28;1964;-53
2022/01/25 16:14:14;;;;;;;;;;;;;;;21.77;25.24;96882.91;10460486;28;1833;-54
2022/01/25 16:19:15;;;;;;;;;;;;;;;21.79;25.42;96885.28;10457208;28;1922;-52
2022/01/25 16:24:16;;;;;;;;;;;;;;;21.77;25.23;96885.53;10460641;28;1849;-53
2022/01/25 16:29:17;;;;;;;;;;;;;;;21.78;25.17;96884.47;10457321;28;1914;-50
2022/01/25 16:34:17;;;;;;;;;;;;;;;21.77;24.90;96887.38;10464593;28;1808;-54
2022/01/25 16:39:18;;;;;;;;;;;;;;;21.75;24.85;96890.28;10462550;28;1807;-54
2022/01/25 16:44:18;;;;;;;;;;;;;;;21.74;24.65;96893.94;10462083;28;1875;-54
2022/01/25 16:49:18;;;;;;;;;;;;;;;21.72;24.91;96892.63;10458708;28;1910;-54
2022/01/25 16:54:19;;;;;;;;;;;;;;;21.73;24.91;96888.94;10466877;28;1840;-55
2022/01/25 16:59:21;;;;;;;;;;;;;;;21.68;24.82;96897.59;10460684;28;2010;-54
2022/01/25 17:04:21;;;;;;;;;;;;;;;21.67;24.87;96896.03;10463892;28;1835;-54
2022/01/25 17:09:22;;;;;;;;;;;;;;;21.65;25.04;96897.31;10461050;28;1973;-56
2022/01/25 17:14:22;;;;;;;;;;;;;;;21.66;25.13;96902.34;10457458;28;1903;-56
2022/01/25 17:19:22;;;;;;;;;;;;;;;21.65;25.01;96897.31;10457370;28;1825;-57
2022/01/25 17:24:23;;;;;;;;;;;;;;;21.66;24.68;96898.88;10458782;28;1912;-52
2022/01/25 17:29:24;;;;;;;;;;;;;;;21.64;24.60;96898.34;10460880;28;1971;-56
2022/01/25 17:34:25;;;;;;;;;;;;;;;21.63;24.89;96902.84;10439303;28;1944;-56
2022/01/25 17:39:25;;;;;;;;;;;;;;;21.64;24.75;96906.25;10447195;28;1859;-56
2022/01/25 17:44:26;;;;;;;;;;;;;;;21.66;24.98;96912.88;10455155;28;1875;-54
2022/01/25 17:49:26;;;;;;;;;;;;;;;21.66;25.12;96912.88;10416803;28;1960;-53
2022/01/25 17:54:27;;;;;;;;;;;;;;;21.67;24.47;96916.31;10438742;28;1917;-56
2022/01/25 17:59:28;;;;;;;;;;;;;;;21.68;24.51;96923.19;10447636;28;1869;-55
2022/01/25 18:04:28;;;;;;;;;;;;;;;21.70;24.91;96924.53;10450946;28;2098;-55
2022/01/25 18:09:30;;;;;;;;;;;;;;;21.68;24.52;96928.47;10453843;28;1901;-54
2022/01/25 18:14:31;;;;;;;;;;;;;;;21.74;24.92;96940.69;10454373;28;1824;-56
2022/01/25 18:19:32;;;;;;;;;;;;;;;21.78;25.09;96937.25;10438651;28;2009;-56
2022/01/25 18:24:46;;;;;;;;;;;;;;;21.87;24.97;96940.25;10461218;28;1844;-56
2022/01/25 18:29:47;;;;;;;;;;;;;;;21.80;25.09;96944.94;10445260;28;1903;-56
2022/01/25 18:34:48;;;;;;;;;;;;;;;21.93;25.77;96943.75;10434890;28;1972;-57
2022/01/25 18:39:49;;;;;;;;;;;;;;;21.93;24.65;96947.16;10440757;28;1916;-58
2022/01/25 18:44:49;;;;;;;;;;;;;;;21.98;25.44;96949.06;10443767;28;1973;-54
2022/01/25 18:49:50;;;;;;;;;;;;;;;21.96;24.76;96957.22;10444607;28;1845;-57
2022/01/25 18:54:52;;;;;;;;;;;;;;;21.97;24.88;96956.16;10439117;28;1873;-58
2022/01/25 18:59:52;;;;;;;;;;;;;;;21.99;24.78;96964.63;10439104;28;1800;-58
2022/01/25 19:04:52;;;;;;;;;;;;;;;21.97;24.07;96961.44;10443437;28;1977;-58
2022/01/25 19:09:53;;;;;;;;;;;;;;;22.02;24.54;96958.84;10444727;28;1857;-59
2022/01/25 19:14:54;;;;;;;;;;;;;;;21.98;24.10;96952.50;10444658;28;1917;-57
2022/01/25 19:19:54;;;;;;;;;;;;;;;22.00;24.42;96954.88;10439914;28;1864;-54
2022/01/25 19:24:54;;;;;;;;;;;;;;;22.01;24.29;96959.13;10447222;28;1914;-58
2022/01/25 19:29:55;;;;;;;;;;;;;;;22.05;24.46;96958.34;10451647;28;1818;-59
2022/01/25 19:34:56;;;;;;;;;;;;;;;22.01;24.74;96951.97;10464145;28;1874;-60
2022/01/25 19:39:57;;;;;;;;;;;;;;;22.04;25.27;96956.75;10462262;28;1809;-59
2022/01/25 19:44:59;;;;;;;;;;;;;;;22.08;24.24;96946.47;10458728;28;1969;-59
2022/01/25 19:49:59;;;;;;;;;;;;;;;22.10;25.43;96947.81;10453227;28;2057;-57
2022/01/25 19:55:01;;;;;;;;;;;;;;;22.06;24.93;96949.38;10449651;28;1803;-57
2022/01/25 20:00:03;;;;;;;;;;;;;;;21.99;24.47;96945.38;10453915;28;1822;-57
2022/01/25 20:05:04;;;;;;;;;;;;;;;22.07;24.25;96948.31;10469852;28;1967;-58
2022/01/25 20:10:07;;;;;;;;;;;;;;;22.03;24.28;96947.22;10458927;28;1831;-57
2022/01/25 20:15:08;;;;;;;;;;;;;;;22.04;24.48;96948.84;10462765;28;1963;-54
2022/01/25 20:20:18;;;;;;;;;;;;;;;22.05;24.52;96950.41;10448526;28;1893;-59
2022/01/25 20:25:36;;;;;;;;;;;;;;;21.94;24.34;96951.41;10454312;28;1902;-57
2022/01/25 20:30:46;;;;;;;;;;;;;;;21.86;24.00;96947.38;10464164;28;1953;-57
2022/01/25 20:35:47;;;;;;;;;;;;;;;21.82;23.90;96948.16;10468279;28;1908;-56
2022/01/25 20:40:49;;;;;;;;;;;;;;;21.79;23.88;96956.53;10471272;28;1847;-55
2022/01/25 20:45:49;;;;;;;;;;;;;;;21.74;24.02;96945.97;10467079;28;1973;-54
2022/01/25 20:50:49;;;;;;;;;;;;;;;21.71;23.91;96947.25;10462398;28;1843;-54
2022/01/25 20:55:50;;;;;;;;;;;;;;;21.71;23.74;96946.44;10458936;28;1842;-56
2022/01/25 21:12:06;;;;;;;;;;;;;;;21.78;23.87;96942.53;10452161;28;1757;-57
2022/01/25 21:17:07;;;;;;;;;;;;;;;21.92;24.45;96940.31;10458435;28;1694;-59
2022/01/25 21:22:07;;;;;;;;;;;;;;;21.79;24.29;96938.84;10461439;28;1505;-58
2022/01/25 21:27:08;;;;;;;;;;;;;;;21.95;25.62;96937.16;10454167;28;1973;-58
2022/01/25 21:32:11;;;;;;;;;;;;;;;21.85;24.07;96942.34;10457503;28;1847;-56
2022/01/25 21:37:11;;;;;;;;;;;;;;;21.81;24.27;96941.25;10461548;28;1883;-56
2022/01/25 21:42:12;;;;;;;;;;;;;;;21.83;24.83;96934.69;10446798;28;2114;-59
2022/01/25 21:47:12;;;;;;;;;;;;;;;21.79;24.66;96932.78;10451226;28;1973;-59
2022/01/25 21:52:13;;;;;;;;;;;;;;;21.73;24.67;96933.78;10452331;28;1827;-54
2022/01/25 21:57:13;;;;;;;;;;;;;;;21.77;25.33;96940.16;10465456;28;1867;-58
2022/01/25 22:02:15;;;;;;;;;;;;;;;21.71;24.03;96926.13;10447349;28;1798;-58
2022/01/25 22:07:17;;;;;;;;;;;;;;;21.69;24.83;96925.59;10442667;28;1899;-57
2022/01/25 22:12:30;;;;;;;;;;;;;;;21.70;24.45;96921.88;10455685;28;2026;-58
2022/01/25 22:17:31;;;;;;;;;;;;;;;21.71;24.30;96912.13;10454642;28;1945;-56
2022/01/25 22:22:31;;;;;;;;;;;;;;;21.70;24.78;96919.25;10452189;28;1786;-57
2022/01/25 22:27:37;;;;;;;;;;;;;;;21.68;23.88;96913.44;10458024;28;1914;-58
2022/01/25 22:32:38;;;;;;;;;;;;;;;21.68;24.60;96910.00;10460239;28;2098;-57
2022/01/25 22:37:39;;;;;;;;;;;;;;;21.68;24.58;96904.72;10453295;28;1894;-56
2022/01/25 22:42:39;;;;;;;;;;;;;;;21.68;24.56;96904.72;10445258;28;1857;-58
2022/01/25 22:47:44;;;;;;;;;;;;;;;21.66;24.43;96893.63;10444916;28;1918;-58
2022/01/25 22:52:44;;;;;;;;;;;;;;;21.64;24.33;96901.78;10451008;28;1840;-56
2022/01/25 22:57:45;;;;;;;;;;;;;;;21.63;24.60;96899.41;10459882;28;1898;-59
2022/01/25 23:02:45;;;;;;;;;;;;;;;21.63;24.80;96902.84;10453831;28;1961;-56
2022/01/25 23:07:46;;;;;;;;;;;;;;;21.60;24.14;96889.34;10455303;28;1949;-58
2022/01/25 23:17:47;;;;;;;;;;;;;;;21.59;24.22;96885.94;10462706;28;2015;-56
2022/01/25 23:22:48;;;;;;;;;;;;;;;21.58;24.39;96883.53;10461612;28;1850;-57
2022/01/25 23:27:51;;;;;;;;;;;;;;;21.60;24.12;96884.06;10458475;28;1914;-58
2022/01/25 23:38:18;;;;;;;;;;;;;;;21.58;23.95;96881.69;10452685;28;2110;-55
2022/01/25 23:43:27;;;;;;;;;;;;;;;21.56;24.02;96881.16;10459140;28;1815;-57
2022/01/25 23:48:27;;;;;;;;;;;;;;;21.57;23.84;96877.47;10457149;28;2054;-58
2022/01/25 23:59:03;;;;;;;;;;;;;;;21.57;24.43;96866.13;10448634;28;1861;-58
